createdAt,value
2022-10-02T00:01:30.378Z,99102.59
2022-10-02T00:03:58.497Z,99114.13
2022-10-02T00:06:28.706Z,99113.91
2022-10-02T00:09:03.591Z,99119.91
2022-10-02T00:11:45.577Z,99130.41
2022-10-02T00:14:15.538Z,99112.53
2022-10-02T00:16:46.540Z,99109.66
2022-10-02T00:19:16.598Z,99120.34
2022-10-02T00:21:49.296Z,99123.44
2022-10-02T00:24:20.674Z,99125.72
2022-10-02T00:27:03.794Z,99112.81
2022-10-02T00:29:45.344Z,99104.16
2022-10-02T00:32:25.071Z,99101.50
2022-10-02T00:35:22.459Z,99128.22
2022-10-02T00:38:10.844Z,99122.50
2022-10-02T00:41:16.858Z,99123.09
2022-10-02T00:44:06.035Z,99123.97
2022-10-02T00:46:45.441Z,99128.28
2022-10-02T00:49:25.039Z,99132.41
2022-10-02T00:52:25.577Z,99132.59
2022-10-02T00:55:03.974Z,99125.22
2022-10-02T00:58:12.122Z,99118.41
2022-10-02T01:00:39.735Z,99132.59
2022-10-02T01:03:29.502Z,99128.94
2022-10-02T01:05:55.815Z,99115.16
2022-10-02T01:08:22.480Z,99113.50
2022-10-02T01:10:49.068Z,99111.03
2022-10-02T01:13:15.938Z,99115.56
2022-10-02T01:15:51.650Z,99128.72
2022-10-02T01:18:18.437Z,99133.25
2022-10-02T01:20:48.515Z,99122.94
2022-10-02T01:23:24.675Z,99119.81
2022-10-02T01:25:51.211Z,99124.34
2022-10-02T01:28:18.145Z,99128.22
2022-10-02T01:30:48.177Z,99118.16
2022-10-02T01:33:16.931Z,99126.56
2022-10-02T01:35:44.348Z,99125.28
2022-10-02T01:38:16.989Z,99119.13
2022-10-02T01:40:43.518Z,99126.88
2022-10-02T01:43:14.536Z,99128.56
2022-10-02T01:45:48.993Z,99132.25
2022-10-02T01:48:40.945Z,99127.91
2022-10-02T01:51:35.068Z,99120.72
2022-10-02T01:54:26.168Z,99119.47
2022-10-02T01:57:02.356Z,99125.63
2022-10-02T01:59:47.560Z,99139.66
2022-10-02T02:02:33.773Z,99147.47
2022-10-02T02:05:09.868Z,99140.25
2022-10-02T02:07:48.418Z,99141.09
2022-10-02T02:10:24.185Z,99158.97
2022-10-02T02:12:56.339Z,99156.13
2022-10-02T02:15:31.162Z,99154.06
2022-10-02T02:18:25.414Z,99162.72
2022-10-02T02:20:55.608Z,99166.22
2022-10-02T02:23:27.317Z,99173.44
2022-10-02T02:25:59.661Z,99173.81
2022-10-02T02:28:29.575Z,99190.50
2022-10-02T02:30:58.192Z,99182.72
2022-10-02T02:33:32.841Z,99179.59
2022-10-02T02:36:06.662Z,99185.75
2022-10-02T02:38:37.678Z,99189.47
2022-10-02T02:41:18.182Z,99192.13
2022-10-02T02:43:53.807Z,99188.91
2022-10-02T02:46:32.857Z,99181.31
2022-10-02T02:49:08.226Z,99182.97
2022-10-02T02:51:41.098Z,99180.13
2022-10-02T02:54:18.975Z,99187.13
2022-10-02T02:56:48.281Z,99180.94
2022-10-02T02:59:15.620Z,99193.28
2022-10-02T03:01:42.567Z,99195.31
2022-10-02T03:04:12.543Z,99197.81
2022-10-02T03:06:44.315Z,99197.81
2022-10-02T03:09:14.743Z,99206.66
2022-10-02T03:11:50.365Z,99218.00
2022-10-02T03:14:37.000Z,99221.94
2022-10-02T03:17:28.676Z,99229.41
2022-10-02T03:20:08.564Z,99230.41
2022-10-02T03:22:44.095Z,99237.81
2022-10-02T03:25:33.318Z,99232.63
2022-10-02T03:28:08.594Z,99230.78
2022-10-02T03:30:36.427Z,99228.31
2022-10-02T03:33:04.972Z,99224.81
2022-10-02T03:35:32.306Z,99227.50
2022-10-02T03:38:03.504Z,99230.34
2022-10-02T03:40:30.168Z,99223.13
2022-10-02T03:42:57.114Z,99229.31
2022-10-02T03:45:46.598Z,99222.16
2022-10-02T03:48:14.338Z,99229.53
2022-10-02T03:50:41.071Z,99222.31
2022-10-02T03:53:14.852Z,99228.69
2022-10-02T03:55:45.610Z,99229.53
2022-10-02T03:58:16.821Z,99225.00
2022-10-02T04:00:58.747Z,99215.94
2022-10-02T04:03:36.842Z,99221.50
2022-10-02T04:06:12.853Z,99410.19
2022-10-02T04:08:47.093Z,99485.06
2022-10-02T04:11:25.334Z,99486.06
2022-10-02T04:14:06.054Z,99476.22
2022-10-02T04:16:40.794Z,99491.63
2022-10-02T04:19:18.627Z,99503.50
2022-10-02T04:22:06.524Z,99511.16
2022-10-02T04:24:57.582Z,99506.84
2022-10-02T04:27:56.740Z,99508.03
2022-10-02T04:30:23.554Z,99509.88
2022-10-02T04:32:50.551Z,99525.72
2022-10-02T04:35:39.666Z,99529.22
2022-10-02T04:38:47.413Z,99535.44
2022-10-02T04:41:39.352Z,99527.78
2022-10-02T04:44:36.719Z,99532.09
2022-10-02T04:47:36.801Z,99532.28
2022-10-02T04:50:30.538Z,99531.09
2022-10-02T04:53:15.042Z,99516.88
2022-10-02T04:56:03.115Z,99519.19
2022-10-02T04:58:44.653Z,99523.72
2022-10-02T05:01:45.999Z,99511.16
2022-10-02T05:04:40.722Z,99515.50
2022-10-02T05:07:37.878Z,99513.84
2022-10-02T05:10:36.962Z,99518.00
2022-10-02T05:13:22.523Z,99507.47
2022-10-02T05:15:57.538Z,99514.50
2022-10-02T05:18:54.201Z,99505.66
2022-10-02T05:21:52.190Z,99494.28
2022-10-02T05:24:38.704Z,99493.47
2022-10-02T05:27:33.098Z,99499.00
2022-10-02T05:30:19.248Z,99500.47
2022-10-02T05:33:07.757Z,99492.81
2022-10-02T05:36:19.100Z,99494.28
2022-10-02T05:39:05.654Z,99495.94
2022-10-02T05:41:41.239Z,99490.44
2022-10-02T05:44:15.234Z,99497.63
2022-10-02T05:47:12.375Z,99504.78
2022-10-02T05:49:41.480Z,99499.28
2022-10-02T05:52:10.694Z,99494.75
2022-10-02T05:54:55.035Z,99505.28
2022-10-02T05:57:32.645Z,99510.16
2022-10-02T06:00:26.107Z,99508.03
2022-10-02T06:03:06.402Z,99499.19
2022-10-02T06:05:52.890Z,99510.88
2022-10-02T06:08:26.950Z,99505.00
2022-10-02T06:10:58.630Z,99514.50
2022-10-02T06:13:32.228Z,99525.81
2022-10-02T06:16:11.088Z,99521.78
2022-10-02T06:18:42.917Z,99525.28
2022-10-02T06:21:43.207Z,99525.75
2022-10-02T06:24:20.481Z,99524.63
2022-10-02T06:27:00.861Z,99537.28
2022-10-02T06:29:48.385Z,99539.94
2022-10-02T06:32:33.573Z,99536.63
2022-10-02T06:35:00.995Z,99531.63
2022-10-02T06:38:26.304Z,99523.97
2022-10-02T06:41:00.793Z,99521.38
2022-10-02T06:44:23.970Z,99515.22
2022-10-02T06:47:14.769Z,99506.34
2022-10-02T06:49:51.587Z,99496.03
2022-10-02T06:52:27.158Z,99484.28
2022-10-02T06:55:15.010Z,99480.25
2022-10-02T06:58:07.589Z,99475.53
2022-10-02T07:00:47.031Z,99469.63
2022-10-02T07:03:27.545Z,99452.81
2022-10-02T07:06:34.884Z,99454.09
2022-10-02T07:09:33.531Z,99447.91
2022-10-02T07:12:37.096Z,99459.28
2022-10-02T07:15:03.447Z,99444.28
2022-10-02T07:17:45.418Z,99440.22
2022-10-02T07:20:14.668Z,99444.16
2022-10-02T07:22:59.831Z,99440.28
2022-10-02T07:26:04.317Z,99441.19
2022-10-02T07:28:52.778Z,99436.09
2022-10-02T07:31:44.076Z,99441.25
2022-10-02T07:34:25.797Z,99432.81
2022-10-02T07:37:14.253Z,99431.44
2022-10-02T07:40:06.490Z,99419.50
2022-10-02T07:43:04.100Z,99418.97
2022-10-02T07:46:18.574Z,99418.97
2022-10-02T07:49:06.511Z,99423.66
2022-10-02T07:52:17.903Z,99427.91
2022-10-02T07:54:57.085Z,99433.41
2022-10-02T07:57:32.825Z,99436.09
2022-10-02T08:00:06.211Z,99445.97
2022-10-02T08:02:39.446Z,99434.63
2022-10-02T08:05:17.309Z,99422.50
2022-10-02T08:07:46.878Z,99446.84
2022-10-02T08:10:15.103Z,99450.66
2022-10-02T08:12:50.109Z,99420.53
2022-10-02T08:15:20.664Z,99419.59
2022-10-02T08:17:58.712Z,99435.34
2022-10-02T08:20:38.015Z,99437.34
2022-10-02T08:23:25.257Z,99450.84
2022-10-02T08:26:04.827Z,99440.06
2022-10-02T08:28:56.793Z,99458.78
2022-10-02T08:31:23.221Z,99468.31
2022-10-02T08:33:49.901Z,99450.41
2022-10-02T08:36:44.045Z,99430.00
2022-10-02T08:39:34.638Z,99418.69
2022-10-02T08:42:18.843Z,99390.13
2022-10-02T08:45:04.420Z,99362.72
2022-10-02T08:47:54.045Z,99324.66
2022-10-02T08:50:27.330Z,99079.78
2022-10-02T08:53:26.028Z,99077.50
2022-10-02T08:56:20.488Z,99061.00
2022-10-02T08:59:07.329Z,99050.88
2022-10-02T09:01:48.739Z,99048.72
2022-10-02T09:04:37.176Z,99037.75
2022-10-02T09:07:29.239Z,99030.13
2022-10-02T09:10:13.615Z,99023.00
2022-10-02T09:13:04.969Z,99008.69
2022-10-02T09:15:53.210Z,99007.41
2022-10-02T09:18:54.897Z,98991.13
2022-10-02T09:21:48.572Z,99001.22
2022-10-02T09:24:54.198Z,98983.25
2022-10-02T09:27:41.762Z,98988.66
2022-10-02T09:30:20.004Z,98981.44
2022-10-02T09:33:17.850Z,98977.44
2022-10-02T09:35:58.644Z,98971.28
2022-10-02T09:38:54.273Z,98964.41
2022-10-02T09:41:58.893Z,98965.41
2022-10-02T09:44:43.857Z,98949.56
2022-10-02T09:47:23.011Z,98937.91
2022-10-02T09:49:58.254Z,98925.06
2022-10-02T09:53:03.338Z,98926.28
2022-10-02T09:55:49.878Z,98931.88
2022-10-02T09:58:38.377Z,98923.44
2022-10-02T10:01:25.987Z,98919.91
2022-10-02T10:04:04.298Z,98927.38
2022-10-02T10:07:19.049Z,98939.44
2022-10-02T10:10:10.166Z,98941.31
2022-10-02T10:12:57.480Z,98944.13
2022-10-02T10:15:57.142Z,98942.41
2022-10-02T10:18:34.538Z,98932.78
2022-10-02T10:21:34.677Z,98929.31
2022-10-02T10:24:28.928Z,98930.28
2022-10-02T10:27:00.305Z,98947.47
2022-10-02T10:29:52.050Z,98958.91
2022-10-02T10:32:46.159Z,98961.63
2022-10-02T10:35:22.424Z,98977.97
2022-10-02T10:38:19.402Z,98990.03
2022-10-02T10:40:53.462Z,98979.09
2022-10-02T10:43:38.454Z,98973.13
2022-10-02T10:46:33.692Z,98980.59
2022-10-02T10:49:37.938Z,98972.94
2022-10-02T10:52:48.968Z,98975.13
2022-10-02T10:55:23.604Z,98966.63
2022-10-02T10:58:16.096Z,98975.91
2022-10-02T11:00:58.356Z,98974.28
2022-10-02T11:04:01.093Z,98972.28
2022-10-02T11:06:35.813Z,98951.41
2022-10-02T11:09:33.517Z,98965.63
2022-10-02T11:12:11.858Z,98975.22
2022-10-02T11:14:54.154Z,98991.38
2022-10-02T11:17:35.638Z,98997.50
2022-10-02T11:20:05.153Z,98985.25
2022-10-02T11:22:56.270Z,98980.75
2022-10-02T11:26:00.924Z,99000.38
2022-10-02T11:28:44.184Z,98992.38
2022-10-02T11:31:29.971Z,98991.50
2022-10-02T11:34:35.354Z,99009.63
2022-10-02T11:37:10.662Z,99004.41
2022-10-02T11:40:09.075Z,98986.47
2022-10-02T11:42:56.538Z,98986.97
2022-10-02T11:45:48.126Z,98987.16
2022-10-02T11:48:52.049Z,98984.91
2022-10-02T11:51:27.478Z,98982.63
2022-10-02T11:54:09.185Z,98975.34
2022-10-02T11:56:59.849Z,98979.66
2022-10-02T11:59:57.235Z,98991.88
2022-10-02T12:02:33.253Z,98987.34
2022-10-02T12:05:31.584Z,98989.44
2022-10-02T12:08:03.810Z,98996.94
2022-10-02T12:10:42.951Z,98996.78
2022-10-02T12:13:23.281Z,98997.41
2022-10-02T12:16:05.957Z,99011.78
2022-10-02T12:18:51.636Z,99015.28
2022-10-02T12:21:36.511Z,98999.81
2022-10-02T12:24:29.602Z,99006.03
2022-10-02T12:27:31.573Z,98995.56
2022-10-02T12:30:07.498Z,99005.25
2022-10-02T12:32:36.704Z,99004.41
2022-10-02T12:35:35.429Z,99007.13
2022-10-02T12:38:12.267Z,99003.59
2022-10-02T12:41:00.446Z,98999.69
2022-10-02T12:43:41.957Z,99016.44
2022-10-02T12:46:45.511Z,99018.50
2022-10-02T12:49:43.283Z,99018.50
2022-10-02T12:52:31.025Z,99029.88
2022-10-02T12:55:34.974Z,99038.31
2022-10-02T12:58:19.696Z,99030.88
2022-10-02T13:01:13.462Z,99045.13
2022-10-02T13:04:17.173Z,99038.31
2022-10-02T13:07:06.959Z,99050.28
2022-10-02T13:09:33.271Z,99049.63
2022-10-02T13:12:22.618Z,99042.63
2022-10-02T13:15:07.319Z,99042.63
2022-10-02T13:17:49.566Z,99058.94
2022-10-02T13:20:38.699Z,99056.25
2022-10-02T13:23:29.814Z,99056.69
2022-10-02T13:26:09.359Z,99063.28
2022-10-02T13:29:18.299Z,99057.28
2022-10-02T13:32:14.515Z,99059.38
2022-10-02T13:35:05.928Z,99071.72
2022-10-02T13:37:38.311Z,99065.97
2022-10-02T13:40:24.129Z,99078.75
2022-10-02T13:43:18.003Z,99083.28
2022-10-02T13:46:02.538Z,99067.59
2022-10-02T13:48:44.095Z,99059.97
2022-10-02T13:51:17.083Z,99050.44
2022-10-02T13:54:05.604Z,99054.53
2022-10-02T13:56:56.178Z,99066.25
2022-10-02T13:59:28.733Z,99060.28
2022-10-02T14:02:23.696Z,99060.44
2022-10-02T14:04:58.419Z,99068.66
2022-10-02T14:07:44.384Z,99043.06
2022-10-02T14:10:36.487Z,99043.06
2022-10-02T14:13:16.248Z,99044.38
2022-10-02T14:15:58.397Z,99048.13
2022-10-02T14:18:36.864Z,99043.63
2022-10-02T14:21:23.835Z,99050.81
2022-10-02T14:24:01.457Z,99057.88
2022-10-02T14:26:49.038Z,99045.91
2022-10-02T14:29:35.613Z,99050.41
2022-10-02T14:32:20.773Z,99052.28
2022-10-02T14:34:52.997Z,99061.59
2022-10-02T14:37:54.614Z,99052.69
2022-10-02T14:40:21.397Z,99043.19
2022-10-02T14:42:53.719Z,99043.44
2022-10-02T14:45:47.372Z,99034.56
2022-10-02T14:48:27.892Z,99028.94
2022-10-02T14:51:06.520Z,99032.44
2022-10-02T14:54:01.566Z,99037.00
2022-10-02T14:56:47.603Z,99032.00
2022-10-02T14:59:16.931Z,99033.72
2022-10-02T15:01:56.397Z,99024.00
2022-10-02T15:04:53.357Z,99025.00
2022-10-02T15:07:22.652Z,99041.53
2022-10-02T15:09:54.600Z,99044.84
2022-10-02T15:12:25.800Z,99061.56
2022-10-02T15:15:01.243Z,99074.38
2022-10-02T15:18:05.110Z,99078.56
2022-10-02T15:21:15.656Z,99064.13
2022-10-02T15:23:42.129Z,99081.66
2022-10-02T15:26:17.045Z,99080.41
2022-10-02T15:29:05.499Z,99088.66
2022-10-02T15:31:39.577Z,99098.13
2022-10-02T15:34:35.846Z,99107.22
2022-10-02T15:37:17.050Z,99125.75
2022-10-02T15:40:02.689Z,99124.09
2022-10-02T15:42:49.729Z,99130.91
2022-10-02T15:45:32.043Z,99138.16
2022-10-02T15:48:17.056Z,99144.72
2022-10-02T15:50:57.004Z,99146.78
2022-10-02T15:53:48.393Z,99148.84
2022-10-02T15:56:42.990Z,99147.00
2022-10-02T15:59:59.706Z,99137.25
2022-10-02T16:02:32.026Z,99138.50
2022-10-02T16:05:19.944Z,99129.84
2022-10-02T16:08:04.013Z,99128.56
2022-10-02T16:10:48.889Z,99123.19
2022-10-02T16:13:27.432Z,99131.47
2022-10-02T16:16:05.244Z,99129.38
2022-10-02T16:18:41.048Z,99137.22
2022-10-02T16:21:26.464Z,99142.19
2022-10-02T16:24:01.693Z,99151.63
2022-10-02T16:27:17.016Z,99151.41
2022-10-02T16:30:09.917Z,99154.50
2022-10-02T16:32:39.638Z,99159.03
2022-10-02T16:35:18.172Z,99159.63
2022-10-02T16:37:45.443Z,99167.06
2022-10-02T16:40:41.528Z,99172.59
2022-10-02T16:43:45.431Z,99162.09
2022-10-02T16:46:47.839Z,99164.38
2022-10-02T16:49:33.091Z,99164.53
2022-10-02T16:52:17.335Z,99160.66
2022-10-02T16:54:58.713Z,99156.75
2022-10-02T16:57:50.100Z,99172.00
2022-10-02T17:00:24.298Z,99177.75
2022-10-02T17:03:19.562Z,99189.47
2022-10-02T17:06:11.488Z,99194.22
2022-10-02T17:08:52.499Z,99216.91
2022-10-02T17:11:23.668Z,99231.13
2022-10-02T17:14:11.747Z,99244.72
2022-10-02T17:16:50.494Z,99260.53
2022-10-02T17:19:27.481Z,99275.16
2022-10-02T17:22:27.102Z,99269.16
2022-10-02T17:25:35.980Z,99282.75
2022-10-02T17:28:09.865Z,99276.72
2022-10-02T17:31:00.528Z,99277.53
2022-10-02T17:33:28.737Z,99268.53
2022-10-02T17:36:01.259Z,99270.53
2022-10-02T17:38:44.752Z,99269.72
2022-10-02T17:41:42.662Z,99273.00
2022-10-02T17:44:52.307Z,99289.88
2022-10-02T17:47:34.378Z,99281.66
2022-10-02T17:50:00.721Z,99288.44
2022-10-02T17:52:50.019Z,99284.28
2022-10-02T17:55:54.531Z,99283.63
2022-10-02T17:58:51.852Z,99290.03
2022-10-02T18:01:24.188Z,99284.66
2022-10-02T18:04:09.435Z,99299.09
2022-10-02T18:06:46.215Z,99311.44
2022-10-02T18:09:24.925Z,99658.06
2022-10-02T18:12:11.426Z,99655.38
2022-10-02T18:15:15.874Z,99654.19
2022-10-02T18:18:10.031Z,99647.34
2022-10-02T18:21:05.105Z,99654.00
2022-10-02T18:23:43.095Z,99644.97
2022-10-02T18:26:18.888Z,99644.13
2022-10-02T18:29:16.515Z,99650.03
2022-10-02T18:31:56.313Z,99652.25
2022-10-02T18:34:29.263Z,99648.91
2022-10-02T18:37:16.912Z,99640.25
2022-10-02T18:40:10.990Z,99627.88
2022-10-02T18:42:47.353Z,99633.59
2022-10-02T18:45:39.650Z,99642.94
2022-10-02T18:48:09.205Z,99644.78
2022-10-02T18:50:48.711Z,99662.97
2022-10-02T18:53:37.329Z,99658.44
2022-10-02T18:56:07.846Z,99663.63
2022-10-02T18:58:42.996Z,99664.25
2022-10-02T19:01:25.422Z,99680.69
2022-10-02T19:04:03.715Z,99675.31
2022-10-02T19:06:45.482Z,99685.84
2022-10-02T19:09:25.819Z,99686.69
2022-10-02T19:11:56.892Z,99701.09
2022-10-02T19:14:38.670Z,99709.50
2022-10-02T19:17:10.931Z,99718.06
2022-10-02T19:19:38.084Z,99718.25
2022-10-02T19:22:16.197Z,99712.25
2022-10-02T19:24:44.522Z,99709.94
2022-10-02T19:27:19.965Z,99706.59
2022-10-02T19:29:54.829Z,99711.69
2022-10-02T19:32:34.034Z,99698.69
2022-10-02T19:35:04.901Z,99685.09
2022-10-02T19:37:31.958Z,99686.94
2022-10-02T19:40:02.115Z,99702.19
2022-10-02T19:42:32.787Z,99708.56
2022-10-02T19:45:03.311Z,99719.44
2022-10-02T19:47:41.570Z,99724.97
2022-10-02T19:50:38.392Z,99712.06
2022-10-02T19:53:15.634Z,99703.38
2022-10-02T19:55:43.892Z,99716.13
2022-10-02T19:58:20.054Z,99718.59
2022-10-02T20:00:47.546Z,99710.41
2022-10-02T20:03:20.735Z,99724.41
2022-10-02T20:05:52.963Z,99726.94
2022-10-02T20:08:25.265Z,99731.97
2022-10-02T20:11:06.171Z,99744.19
2022-10-02T20:13:38.925Z,99746.19
2022-10-02T20:16:25.289Z,99742.16
2022-10-02T20:18:52.324Z,99754.88
2022-10-02T20:21:40.278Z,99756.28
2022-10-02T20:24:16.714Z,99753.59
2022-10-02T20:26:45.529Z,99761.44
2022-10-02T20:29:18.658Z,99764.28
2022-10-02T20:31:48.516Z,99769.28
2022-10-02T20:34:31.631Z,99771.09
2022-10-02T20:37:06.099Z,99776.28
2022-10-02T20:39:45.046Z,99785.97
2022-10-02T20:42:17.373Z,99791.53
2022-10-02T20:44:43.678Z,99793.19
2022-10-02T20:47:22.276Z,99793.19
2022-10-02T20:50:09.343Z,99808.41
2022-10-02T20:52:57.850Z,99820.16
2022-10-02T20:55:36.196Z,99830.19
2022-10-02T20:58:24.285Z,99824.00
2022-10-02T21:01:14.469Z,99834.25
2022-10-02T21:06:56.168Z,99841.38
2022-10-02T21:10:16.666Z,99842.25
2022-10-02T21:13:01.629Z,99841.97
2022-10-02T21:15:44.145Z,99841.81
2022-10-02T21:18:34.679Z,99854.78
2022-10-02T21:21:24.756Z,99856.66
2022-10-02T21:24:00.677Z,99864.69
2022-10-02T21:26:56.226Z,99867.22
2022-10-02T21:29:28.774Z,99865.38
2022-10-02T21:32:12.913Z,99867.84
2022-10-02T21:34:48.558Z,99874.41
2022-10-02T21:37:30.918Z,99870.53
2022-10-02T21:40:32.980Z,99861.69
2022-10-02T21:43:25.890Z,99863.91
2022-10-02T21:46:27.882Z,99870.28
2022-10-02T21:49:16.066Z,99871.16
2022-10-02T21:52:14.336Z,99863.00
2022-10-02T21:54:58.695Z,99877.72
2022-10-02T21:57:49.412Z,99882.19
2022-10-02T22:00:22.100Z,99880.88
2022-10-02T22:03:27.229Z,99884.53
2022-10-02T22:06:27.862Z,99886.22
2022-10-02T22:09:15.796Z,99897.25
2022-10-02T22:11:58.549Z,99901.72
2022-10-02T22:14:32.665Z,99905.75
2022-10-02T22:17:15.769Z,99909.13
2022-10-02T22:19:48.837Z,99902.94
2022-10-02T22:23:00.433Z,99912.63
2022-10-02T22:25:43.634Z,99916.31
2022-10-02T22:28:23.061Z,99916.44
2022-10-02T22:30:55.523Z,99934.63
2022-10-02T22:33:37.785Z,99934.47
2022-10-02T22:36:43.173Z,99953.19
2022-10-02T22:39:24.827Z,99962.22
2022-10-02T22:42:13.973Z,99965.53
2022-10-02T22:44:52.796Z,99971.06
2022-10-02T22:47:37.693Z,99976.06
2022-10-02T22:50:13.409Z,99978.41
2022-10-02T22:53:00.416Z,99975.91
2022-10-02T22:55:32.760Z,99976.25
2022-10-02T22:58:01.552Z,99977.75
2022-10-02T23:00:36.416Z,99975.03
2022-10-02T23:03:15.258Z,99980.75
2022-10-02T23:06:20.183Z,99983.75
2022-10-02T23:09:08.004Z,99985.59
2022-10-02T23:11:43.747Z,99985.59
2022-10-02T23:14:23.079Z,99990.09
2022-10-02T23:17:01.894Z,100002.13
2022-10-02T23:19:42.203Z,99991.91
2022-10-02T23:22:19.874Z,99984.25
2022-10-02T23:25:12.685Z,99989.28
2022-10-02T23:27:51.979Z,99999.28
2022-10-02T23:30:20.431Z,99998.94
2022-10-02T23:33:06.923Z,100001.75
2022-10-02T23:35:46.499Z,99998.41
2022-10-02T23:38:20.845Z,99997.09
2022-10-02T23:41:08.072Z,99998.59
2022-10-02T23:43:42.445Z,99993.44
2022-10-02T23:46:17.218Z,99995.91
2022-10-02T23:48:45.040Z,100008.09
2022-10-02T23:51:23.743Z,100008.59
2022-10-02T23:53:58.778Z,100009.44
2022-10-02T23:56:31.049Z,100010.78
2022-10-02T23:59:21.065Z,100013.47
